Time;durP1;ratioP1;P1;durP2;ratioP2;P2;SDS_P1;SDS_P2;PMS_P1;PMS_P2;Temp;Humidity;BMP_temperature;BMP_pressure;BME280_temperature;BME280_humidity;BME280_pressure;Samples;Min_cycle;Max_cycle;Signal;HPM_P1;HPM_P2
2023/10/09 00:03:01;;;;;;;10.98;4.15;;;14.00;99.90;;;;;;5091850;28;20040;-70
2023/10/09 00:08:30;;;;;;;9.18;3.97;;;14.00;99.90;;;;;;5091663;28;20044;-69
2023/10/09 00:11:16;;;;;;;8.13;4.10;;;14.00;99.90;;;;;;5073703;28;20499;-69
2023/10/09 00:13:49;;;;;;;7.57;3.78;;;14.00;99.90;;;;;;5091554;28;20111;-69
2023/10/09 00:16:42;;;;;;;9.77;3.65;;;14.00;99.90;;;;;;5092385;28;20503;-69
2023/10/09 00:19:17;;;;;;;13.20;4.45;;;13.90;99.90;;;;;;5095980;28;20035;-69
2023/10/09 00:21:46;;;;;;;11.38;4.28;;;14.00;99.90;;;;;;5095864;28;20492;-69
2023/10/09 00:24:13;;;;;;;9.45;4.45;;;14.00;99.90;;;;;;5077437;28;20044;-69
2023/10/09 00:26:45;;;;;;;10.38;5.18;;;14.00;99.90;;;;;;5095734;28;20040;-69
2023/10/09 00:29:21;;;;;;;9.13;4.45;;;14.00;99.90;;;;;;5095436;28;20044;-69
2023/10/09 00:32:13;;;;;;;10.55;3.92;;;14.00;99.90;;;;;;5095738;28;20137;-69
2023/10/09 00:34:39;;;;;;;11.52;4.80;;;14.00;99.90;;;;;;5095424;28;20046;-70
2023/10/09 00:37:26;;;;;;;8.77;4.22;;;14.10;99.90;;;;;;5077547;28;20047;-69
2023/10/09 00:39:56;;;;;;;10.25;4.85;;;14.00;99.90;;;;;;5077603;28;20032;-69
2023/10/09 00:42:36;;;;;;;11.30;5.10;;;14.00;99.90;;;;;;5095932;28;20047;-69
2023/10/09 00:45:07;;;;;;;10.13;5.47;;;14.00;99.90;;;;;;5095585;28;20036;-69
2023/10/09 00:47:34;;;;;;;11.55;5.13;;;14.00;99.90;;;;;;5095481;28;20040;-69
2023/10/09 00:52:53;;;;;;;15.05;5.70;;;14.00;99.90;;;;;;5095822;28;20069;-70
2023/10/09 00:55:21;;;;;;;18.13;6.28;;;14.10;99.90;;;;;;5095330;28;20036;-69
2023/10/09 00:57:59;;;;;;;10.73;5.38;;;14.10;99.90;;;;;;5077421;28;20052;-69
2023/10/09 01:03:18;;;;;;;12.73;5.53;;;14.10;99.90;;;;;;5095277;28;20044;-69
2023/10/09 01:05:57;;;;;;;9.13;5.40;;;14.10;99.90;;;;;;5077189;28;20093;-69
2023/10/09 01:08:38;;;;;;;13.50;5.45;;;14.20;99.90;;;;;;5095068;28;20062;-69
2023/10/09 01:11:10;;;;;;;15.00;5.63;;;14.10;99.90;;;;;;5094934;28;20058;-69
2023/10/09 01:13:52;;;;;;;12.63;6.35;;;14.20;99.90;;;;;;5094812;28;20119;-69
2023/10/09 01:16:24;;;;;;;12.47;5.83;;;14.20;99.90;;;;;;5095010;28;20040;-69
2023/10/09 01:18:57;;;;;;;13.63;6.60;;;14.20;99.90;;;;;;5076654;28;20369;-69
2023/10/09 01:21:26;;;;;;;13.50;6.93;;;14.20;99.90;;;;;;5094615;28;20040;-69
2023/10/09 01:24:07;;;;;;;12.52;6.13;;;14.10;99.90;;;;;;5094692;28;20040;-69
2023/10/09 01:26:40;;;;;;;13.23;7.25;;;14.20;99.90;;;;;;5094676;28;20044;-70
2023/10/09 01:29:16;;;;;;;15.23;6.05;;;14.20;99.90;;;;;;5093175;28;20044;-69
2023/10/09 01:32:26;;;;;;;17.15;7.20;;;14.20;99.90;;;;;;5094244;28;20085;-69
2023/10/09 01:34:41;;;;;;;16.70;7.65;;;14.20;99.90;;;;;;5088382;28;20040;-69
2023/10/09 01:37:17;;;;;;;14.32;7.60;;;14.20;99.90;;;;;;5076280;28;20101;-69
2023/10/09 01:39:42;;;;;;;18.30;6.90;;;14.20;99.90;;;;;;5094071;28;20039;-70
2023/10/09 01:42:09;;;;;;;15.80;7.25;;;14.20;99.90;;;;;;5076212;28;20040;-69
2023/10/09 01:44:35;;;;;;;19.42;7.25;;;14.20;99.90;;;;;;5076037;28;20089;-69
2023/10/09 01:47:07;;;;;;;17.23;8.23;;;14.20;99.90;;;;;;5094288;28;20044;-69
2023/10/09 01:49:41;;;;;;;21.30;7.30;;;14.20;99.90;;;;;;5094118;28;20040;-69
2023/10/09 01:52:09;;;;;;;15.27;7.03;;;14.20;99.90;;;;;;5094212;28;20055;-69
2023/10/09 01:54:40;;;;;;;17.23;7.18;;;14.20;99.90;;;;;;5093790;28;20046;-69
2023/10/09 01:57:22;;;;;;;16.48;8.07;;;14.20;99.90;;;;;;5094240;28;20047;-69
2023/10/09 01:59:49;;;;;;;16.35;7.95;;;14.20;99.90;;;;;;5093833;28;20094;-69
2023/10/09 02:02:25;;;;;;;20.23;9.52;;;14.20;99.90;;;;;;5093910;28;20518;-69
2023/10/09 02:05:39;;;;;;;17.25;7.70;;;14.20;99.90;;;;;;5075850;28;20044;-69
2023/10/09 02:07:51;;;;;;;20.90;8.40;;;14.20;99.90;;;;;;5082651;28;20075;-69
2023/10/09 02:12:59;;;;;;;19.67;9.20;;;14.20;99.90;;;;;;5093641;28;20041;-69
2023/10/09 02:20:55;;;;;;;19.15;9.45;;;14.10;99.90;;;;;;5113752;28;20103;-69
2023/10/09 02:23:25;;;;;;;24.90;11.07;;;14.10;99.90;;;;;;5113828;28;20085;-69
2023/10/09 02:25:55;;;;;;;23.10;12.23;;;14.20;99.90;;;;;;5113714;28;20039;-69
2023/10/09 02:28:21;;;;;;;26.33;11.60;;;14.20;99.90;;;;;;5113660;28;20074;-69
2023/10/09 02:30:47;;;;;;;25.65;11.95;;;14.10;99.90;;;;;;5113416;28;20070;-69
2023/10/09 02:33:27;;;;;;;23.33;10.93;;;14.20;99.90;;;;;;5113705;28;20466;-69
2023/10/09 02:36:04;;;;;;;29.13;13.82;;;14.20;99.90;;;;;;5113633;28;20449;-69
2023/10/09 02:38:33;;;;;;;27.58;15.07;;;14.10;99.90;;;;;;5113332;28;20522;-69
2023/10/09 02:43:44;;;;;;;34.60;13.38;;;14.10;99.90;;;;;;5113299;28;20108;-69
2023/10/09 02:46:20;;;;;;;25.88;13.55;;;14.10;99.90;;;;;;5095314;28;20520;-69
2023/10/09 02:48:52;;;;;;;29.83;14.05;;;14.10;99.90;;;;;;5113375;28;20050;-69
2023/10/09 02:53:52;;;;;;;26.08;13.93;;;14.10;99.90;;;;;;5113253;28;20112;-69
2023/10/09 02:56:23;;;;;;;26.77;13.65;;;14.10;99.90;;;;;;5113282;28;20086;-69
2023/10/09 02:58:52;;;;;;;31.42;14.85;;;14.00;99.90;;;;;;5113345;28;20662;-69
2023/10/09 03:01:18;;;;;;;32.42;14.48;;;14.00;99.90;;;;;;5112743;28;20035;-69
2023/10/09 03:03:45;;;;;;;27.48;13.93;;;14.10;99.90;;;;;;5112856;28;20043;-69
2023/10/09 03:06:19;;;;;;;32.88;14.63;;;14.00;99.90;;;;;;5094713;28;20494;-69
2023/10/09 03:08:47;;;;;;;38.65;15.57;;;14.00;99.90;;;;;;5112945;28;20499;-69
2023/10/09 03:11:13;;;;;;;35.30;16.85;;;14.00;99.90;;;;;;5112655;28;20040;-69
2023/10/09 03:13:45;;;;;;;34.70;17.25;;;14.00;99.90;;;;;;5112491;28;20039;-69
2023/10/09 03:16:18;;;;;;;32.85;16.13;;;14.00;99.90;;;;;;5112715;28;20046;-69
2023/10/09 03:18:49;;;;;;;28.65;14.75;;;14.00;99.90;;;;;;5112897;28;20043;-69
2023/10/09 03:21:16;;;;;;;29.80;14.85;;;14.00;99.90;;;;;;5112688;28;20445;-69
2023/10/09 03:23:43;;;;;;;35.00;16.30;;;14.00;99.90;;;;;;5112623;28;20043;-69
2023/10/09 03:26:10;;;;;;;37.03;16.35;;;14.00;99.90;;;;;;5112588;28;20040;-69
2023/10/09 03:28:36;;;;;;;37.25;17.38;;;14.00;99.90;;;;;;5112380;28;20054;-69
2023/10/09 03:31:02;;;;;;;37.35;17.23;;;14.00;99.90;;;;;;5112449;28;20561;-69
2023/10/09 03:33:32;;;;;;;36.55;18.73;;;14.10;99.90;;;;;;5112568;28;20445;-69
2023/10/09 03:36:00;;;;;;;36.53;18.50;;;14.10;99.90;;;;;;5112499;28;20449;-69
2023/10/09 03:38:29;;;;;;;39.03;19.27;;;14.20;99.90;;;;;;5112338;28;20582;-71
2023/10/09 03:40:54;;;;;;;38.80;19.10;;;14.20;99.90;;;;;;5093687;28;20043;-69
2023/10/09 03:43:21;;;;;;;39.95;18.33;;;14.20;99.90;;;;;;5112420;28;20372;-69
2023/10/09 03:45:53;;;;;;;36.05;19.83;;;14.20;99.90;;;;;;5112300;28;20057;-69
2023/10/09 03:48:25;;;;;;;51.75;19.38;;;14.20;99.90;;;;;;5112351;28;20122;-69
2023/10/09 03:51:08;;;;;;;40.22;18.63;;;14.30;99.90;;;;;;5092939;28;20081;-68
2023/10/09 03:53:36;;;;;;;41.03;21.02;;;14.30;99.90;;;;;;5111913;28;20051;-69
2023/10/09 03:56:11;;;;;;;43.13;21.33;;;14.20;99.90;;;;;;5112128;28;20096;-69
2023/10/09 03:58:42;;;;;;;45.80;20.75;;;14.30;99.90;;;;;;5094044;28;20039;-69
2023/10/09 04:01:28;;;;;;;47.30;20.77;;;14.40;99.90;;;;;;5111933;28;20039;-69
2023/10/09 04:04:01;;;;;;;45.65;21.92;;;14.40;99.90;;;;;;5111915;28;20527;-69
2023/10/09 04:06:32;;;;;;;45.08;21.60;;;14.40;99.90;;;;;;5112057;28;20080;-69
2023/10/09 04:14:49;;;;;;;47.13;22.27;;;14.40;99.90;;;;;;5093367;28;20100;-69
2023/10/09 04:17:33;;;;;;;40.70;21.27;;;14.40;99.90;;;;;;5112048;28;20119;-69
2023/10/09 04:22:50;;;;;;;41.13;21.83;;;14.50;99.90;;;;;;5111804;28;20044;-69
2023/10/09 04:25:41;;;;;;;41.45;20.80;;;14.50;99.90;;;;;;5093892;28;20055;-69
2023/10/09 04:28:21;;;;;;;41.53;21.15;;;14.50;99.90;;;;;;5093631;28;20482;-69
2023/10/09 04:30:53;;;;;;;46.90;22.63;;;14.50;99.90;;;;;;5111627;28;20047;-69
2023/10/09 04:41:33;;;;;;;43.55;20.80;;;14.40;99.90;;;;;;5093481;28;20422;-69
2023/10/09 04:46:44;;;;;;;43.55;20.65;;;14.60;99.90;;;;;;5093364;28;20044;-69
2023/10/09 04:49:26;;;;;;;43.42;22.75;;;14.50;99.90;;;;;;5093541;28;20078;-69
2023/10/09 04:52:07;;;;;;;44.13;21.20;;;14.60;99.90;;;;;;5111703;28;20092;-69
2023/10/09 04:57:17;;;;;;;48.10;24.38;;;14.60;99.90;;;;;;5111514;28;20495;-69
2023/10/09 04:59:47;;;;;;;49.55;23.88;;;14.60;99.90;;;;;;5106790;28;20115;-69
2023/10/09 05:02:19;;;;;;;41.67;22.02;;;14.70;99.90;;;;;;5091714;28;20458;-69
2023/10/09 05:05:01;;;;;;;49.33;22.30;;;14.70;99.90;;;;;;5076736;28;20048;-69
2023/10/09 05:07:49;;;;;;;48.22;23.05;;;14.70;99.90;;;;;;5095079;28;20097;-69
2023/10/09 05:10:17;;;;;;;44.92;22.08;;;14.70;99.90;;;;;;5094425;28;20119;-69
2023/10/09 05:12:47;;;;;;;42.95;22.27;;;14.70;99.90;;;;;;5094728;28;20523;-69
2023/10/09 05:15:14;;;;;;;42.97;20.65;;;14.80;99.90;;;;;;5094608;28;20040;-69
2023/10/09 05:17:45;;;;;;;46.13;22.33;;;14.90;99.90;;;;;;5094789;28;20063;-69
2023/10/09 05:22:58;;;;;;;43.65;20.40;;;14.90;99.90;;;;;;5094733;28;20051;-69
2023/10/09 05:31:06;;;;;;;38.35;18.73;;;15.00;99.90;;;;;;5106950;28;20043;-69
2023/10/09 05:33:33;;;;;;;38.13;18.80;;;15.00;99.90;;;;;;5108701;28;20041;-69
2023/10/09 05:38:58;;;;;;;42.50;19.40;;;15.10;99.90;;;;;;5110786;28;20583;-69
2023/10/09 05:47:43;;;;;;;37.55;18.80;;;15.20;99.90;;;;;;5114662;28;20047;-69
2023/10/09 05:49:54;;;;;;;42.10;19.65;;;15.20;99.90;;;;;;5102970;28;20047;-69
2023/10/09 05:52:32;;;;;;;37.20;18.27;;;15.20;99.90;;;;;;5114447;28;20043;-69
2023/10/09 06:03:23;;;;;;;36.72;19.77;;;15.40;99.90;;;;;;5096006;28;20503;-73
2023/10/09 06:06:01;;;;;;;34.17;18.10;;;15.30;99.90;;;;;;5096132;28;20127;-73
2023/10/09 06:14:03;;;;;;;41.60;19.48;;;15.40;99.90;;;;;;5113008;28;20043;-73
2023/10/09 06:19:11;;;;;;;38.60;17.20;;;15.40;99.90;;;;;;5095560;28;20516;-73
2023/10/09 06:24:18;;;;;;;31.70;17.35;;;15.40;99.90;;;;;;5113954;28;20050;-73
2023/10/09 06:29:35;;;;;;;29.55;14.77;;;15.50;99.90;;;;;;5095354;28;20054;-73
2023/10/09 06:34:56;;;;;;;28.88;13.93;;;15.50;99.90;;;;;;5095326;28;20048;-73
2023/10/09 06:45:09;;;;;;;30.38;13.68;;;15.60;99.90;;;;;;5095067;28;20062;-73
2023/10/09 06:47:41;;;;;;;30.25;13.00;;;15.50;99.90;;;;;;5113485;28;20066;-73
2023/10/09 06:53:18;;;;;;;25.17;13.10;;;15.50;99.90;;;;;;5113341;28;20047;-73
2023/10/09 06:55:48;;;;;;;24.20;11.90;;;15.60;99.90;;;;;;5094771;28;20123;-73
2023/10/09 06:58:26;;;;;;;26.38;11.88;;;15.60;99.90;;;;;;5095261;28;20055;-73
2023/10/09 07:03:51;;;;;;;25.05;11.23;;;15.70;99.90;;;;;;5113269;28;20071;-73
2023/10/09 07:06:24;;;;;;;28.55;11.15;;;15.70;99.90;;;;;;5095279;28;20399;-73
2023/10/09 07:15:01;;;;;;;28.23;10.65;;;15.70;99.90;;;;;;5094616;28;20044;-73
2023/10/09 07:17:21;;;;;;;28.58;10.95;;;15.70;99.90;;;;;;5112673;28;20040;-73
2023/10/09 07:24:49;;;;;;;27.08;11.70;;;15.70;99.90;;;;;;5112743;28;20047;-73
2023/10/09 07:30:35;;;;;;;23.08;10.10;;;15.70;99.90;;;;;;5105198;28;20048;-73
2023/10/09 07:35:54;;;;;;;24.02;11.10;;;15.80;99.90;;;;;;5073904;28;20063;-72
2023/10/09 07:38:29;;;;;;;23.13;10.68;;;15.80;99.90;;;;;;5092041;28;20051;-73
2023/10/09 07:41:33;;;;;;;23.98;10.85;;;15.80;99.90;;;;;;5092011;28;20059;-73
2023/10/09 07:46:32;;;;;;;21.38;10.43;;;15.90;99.90;;;;;;5073845;28;20128;-73
2023/10/09 07:49:09;;;;;;;29.05;10.77;;;15.80;99.90;;;;;;5073711;28;20048;-73
2023/10/09 07:51:36;;;;;;;24.75;10.95;;;15.80;99.90;;;;;;5073758;28;20045;-73
2023/10/09 07:54:09;;;;;;;24.52;10.80;;;15.90;99.90;;;;;;5073665;28;20039;-73
2023/10/09 07:56:41;;;;;;;25.27;11.10;;;15.80;99.90;;;;;;5092163;28;20040;-73
2023/10/09 07:59:13;;;;;;;27.35;11.35;;;15.90;99.90;;;;;;5073750;28;20088;-73
2023/10/09 08:01:52;;;;;;;26.67;11.38;;;16.00;99.90;;;;;;5073844;28;20044;-73
2023/10/09 08:07:19;;;;;;;29.83;10.15;;;15.90;99.90;;;;;;5091792;28;20043;-73
2023/10/09 08:09:48;;;;;;;23.90;10.00;;;15.80;99.90;;;;;;5091493;28;20032;-73
2023/10/09 08:12:59;;;;;;;28.60;11.07;;;15.90;99.90;;;;;;5073949;28;20036;-73
2023/10/09 08:15:27;;;;;;;21.98;10.70;;;15.90;99.90;;;;;;5067857;22;20063;-73
2023/10/09 08:18:10;;;;;;;29.42;10.25;;;16.00;99.90;;;;;;5052615;28;20071;-73
2023/10/09 08:23:28;;;;;;;23.83;10.82;;;15.90;99.90;;;;;;5053453;28;20045;-74
2023/10/09 08:26:14;;;;;;;29.15;10.15;;;16.00;99.90;;;;;;5053538;28;20043;-73
2023/10/09 08:28:44;;;;;;;22.75;10.10;;;15.90;99.90;;;;;;5055747;28;20569;-73
2023/10/09 08:34:24;;;;;;;26.95;10.43;;;15.90;99.90;;;;;;5009221;28;20061;-74
2023/10/09 08:36:53;;;;;;;24.17;10.50;;;16.10;99.90;;;;;;5063165;28;20152;-73
2023/10/09 08:39:25;;;;;;;27.48;11.07;;;15.90;99.90;;;;;;5057296;28;20036;-74
2023/10/09 08:42:03;;;;;;;23.08;9.57;;;15.90;99.90;;;;;;5040523;28;20047;-74
2023/10/09 08:44:31;;;;;;;20.13;9.63;;;16.00;99.90;;;;;;5075234;28;20044;-74
2023/10/09 08:46:57;;;;;;;23.73;9.95;;;16.00;99.90;;;;;;5075081;28;20492;-74
2023/10/09 08:49:25;;;;;;;26.13;10.43;;;16.00;99.90;;;;;;5056885;28;20043;-74
2023/10/09 08:51:52;;;;;;;21.23;10.05;;;16.00;99.90;;;;;;5075027;28;20052;-74
2023/10/09 08:54:18;;;;;;;24.98;10.63;;;16.00;99.90;;;;;;5057058;28;20389;-74
2023/10/09 08:56:54;;;;;;;27.75;10.85;;;16.10;99.90;;;;;;5075041;28;20068;-73
2023/10/09 08:59:20;;;;;;;24.40;11.15;;;16.10;99.90;;;;;;5057033;28;20488;-74
2023/10/09 09:01:51;;;;;;;28.45;10.98;;;16.20;99.90;;;;;;5074548;28;20041;-74
2023/10/09 09:04:38;;;;;;;21.48;10.00;;;16.10;99.90;;;;;;5056829;28;20041;-74
2023/10/09 09:07:04;;;;;;;21.27;10.75;;;16.10;99.90;;;;;;5056761;28;20044;-74
2023/10/09 09:09:32;;;;;;;23.48;10.50;;;16.10;99.90;;;;;;5056624;28;20500;-74
2023/10/09 09:11:59;;;;;;;26.45;9.25;;;16.10;99.90;;;;;;5056345;28;20182;-74
2023/10/09 09:14:38;;;;;;;26.05;10.48;;;16.20;99.90;;;;;;5040060;28;20037;-74
2023/10/09 09:17:10;;;;;;;27.00;10.18;;;16.30;99.90;;;;;;5056684;28;20044;-74
2023/10/09 09:19:37;;;;;;;21.40;10.00;;;16.20;99.90;;;;;;5056454;28;20047;-74
2023/10/09 09:22:13;;;;;;;22.88;9.52;;;16.30;99.90;;;;;;5074143;28;20286;-74
2023/10/09 09:25:00;;;;;;;20.92;9.05;;;16.30;99.90;;;;;;5056462;28;20041;-74
2023/10/09 09:27:49;;;;;;;27.67;10.07;;;16.30;99.90;;;;;;5074438;28;20047;-74
2023/10/09 09:30:32;;;;;;;19.90;9.18;;;16.40;99.90;;;;;;5074300;28;20079;-74
2023/10/09 09:33:16;;;;;;;26.00;9.68;;;16.30;99.90;;;;;;5074318;28;20117;-74
2023/10/09 09:36:04;;;;;;;;;;;16.30;99.90;;;;;;5056467;28;20560;-74
2023/10/09 09:38:50;;;;;;;23.60;10.18;;;16.30;99.90;;;;;;5074266;28;19943;-74
2023/10/09 09:41:25;;;;;;;18.80;8.88;;;16.30;99.90;;;;;;5055857;28;20055;-74
2023/10/09 09:44:00;;;;;;;20.50;9.55;;;16.40;99.90;;;;;;5074228;28;20064;-74
2023/10/09 09:46:37;;;;;;;25.83;9.45;;;16.40;99.90;;;;;;5074140;28;20041;-74
2023/10/09 09:49:12;;;;;;;20.77;9.55;;;16.30;99.90;;;;;;5072660;28;20047;-73
2023/10/09 09:51:37;;;;;;;17.65;8.55;;;16.40;99.90;;;;;;5073755;28;20048;-74
2023/10/09 09:54:08;;;;;;;25.58;9.52;;;16.50;99.90;;;;;;5073669;28;20048;-74
2023/10/09 09:56:38;;;;;;;17.85;9.07;;;16.50;99.90;;;;;;5056196;28;20409;-74
2023/10/09 09:59:07;;;;;;;21.13;10.13;;;16.40;99.90;;;;;;5073817;28;20446;-73
2023/10/09 10:01:39;;;;;;;17.08;8.68;;;16.50;99.90;;;;;;5073508;28;20487;-74
2023/10/09 10:04:14;;;;;;;19.83;8.68;;;16.50;99.90;;;;;;5073620;28;20055;-74
2023/10/09 10:06:43;;;;;;;18.60;8.45;;;16.70;99.90;;;;;;5054737;28;20503;-71
2023/10/09 10:09:09;;;;;;;20.30;9.18;;;16.60;99.90;;;;;;5073415;28;20037;-71
2023/10/09 10:11:52;;;;;;;15.75;8.75;;;16.80;99.90;;;;;;5072482;28;20040;-71
2023/10/09 10:14:31;;;;;;;16.05;9.15;;;16.80;99.90;;;;;;5055394;28;20041;-71
2023/10/09 10:17:21;;;;;;;20.40;9.35;;;16.70;99.90;;;;;;5073671;28;20361;-72
2023/10/09 10:22:47;;;;;;;21.00;8.13;;;16.70;99.90;;;;;;5073283;28;20040;-71
2023/10/09 10:25:35;;;;;;;14.95;6.88;;;16.80;99.90;;;;;;5072985;28;20071;-71
2023/10/09 10:28:34;;;;;;;19.88;8.50;;;16.80;99.90;;;;;;5073355;28;20044;-72
2023/10/09 10:31:03;;;;;;;18.02;7.82;;;16.70;99.90;;;;;;5072915;28;20055;-71
2023/10/09 10:33:54;;;;;;;13.95;6.63;;;16.70;99.90;;;;;;5073013;28;20461;-71
2023/10/09 10:36:24;;;;;;;16.10;7.68;;;16.70;99.90;;;;;;5055346;28;20076;-71
2023/10/09 10:39:11;;;;;;;15.15;7.47;;;16.80;99.90;;;;;;5073130;28;20044;-71
2023/10/09 10:41:50;;;;;;;17.23;7.03;;;16.70;99.90;;;;;;5072709;28;20044;-71
2023/10/09 10:44:36;;;;;;;23.55;8.30;;;16.70;99.90;;;;;;5055007;28;20048;-71
2023/10/09 10:47:03;;;;;;;20.38;7.20;;;16.70;99.90;;;;;;5072479;28;20036;-71
2023/10/09 10:49:36;;;;;;;19.20;7.50;;;16.70;99.90;;;;;;5071782;28;20036;-71
2023/10/09 10:52:18;;;;;;;16.23;7.75;;;16.70;99.90;;;;;;5071739;28;20047;-73
2023/10/09 10:54:47;;;;;;;14.13;7.63;;;16.70;99.90;;;;;;5073432;28;20032;-71
2023/10/09 10:57:28;;;;;;;19.98;7.88;;;16.90;99.90;;;;;;5084320;28;20139;-71
2023/10/09 11:00:14;;;;;;;16.42;7.43;;;16.90;99.90;;;;;;5051284;28;20058;-71
2023/10/09 11:02:43;;;;;;;19.95;7.15;;;16.80;99.90;;;;;;5071541;28;20499;-71
2023/10/09 11:05:23;;;;;;;15.00;7.18;;;16.90;99.90;;;;;;5054083;28;20044;-71
2023/10/09 11:07:52;;;;;;;18.00;7.35;;;16.90;99.90;;;;;;5054011;28;20051;-71
2023/10/09 11:10:31;;;;;;;16.10;7.03;;;16.80;99.90;;;;;;5070913;28;20052;-72
2023/10/09 11:15:46;;;;;;;22.30;6.20;;;16.90;99.90;;;;;;5072234;28;20040;-71
2023/10/09 11:18:20;;;;;;;13.93;6.35;;;16.80;99.90;;;;;;5054494;28;20052;-72
2023/10/09 11:26:40;;;;;;;12.75;6.40;;;16.80;99.90;;;;;;5071370;28;20415;-71
2023/10/09 11:29:14;;;;;;;17.50;6.93;;;16.90;99.90;;;;;;5068000;28;20041;-71
2023/10/09 11:31:41;;;;;;;15.70;7.07;;;16.80;99.90;;;;;;5067826;28;20040;-71
2023/10/09 11:34:37;;;;;;;16.02;6.30;;;16.90;99.90;;;;;;5071784;28;20111;-70
2023/10/09 11:37:15;;;;;;;15.07;6.13;;;16.90;99.90;;;;;;5053238;28;20047;-71
2023/10/09 11:39:53;;;;;;;17.63;7.65;;;16.90;99.90;;;;;;5071446;28;20032;-70
2023/10/09 11:42:35;;;;;;;15.68;6.20;;;16.90;99.90;;;;;;5071201;28;20040;-71
2023/10/09 11:45:23;;;;;;;16.27;5.78;;;16.90;99.90;;;;;;5070641;28;20052;-70
2023/10/09 11:47:58;;;;;;;11.50;5.47;;;17.10;99.90;;;;;;5069136;28;20032;-71
2023/10/09 11:50:43;;;;;;;15.30;6.25;;;16.90;99.90;;;;;;5070588;28;20041;-70
2023/10/09 11:53:17;;;;;;;13.85;6.18;;;17.00;99.90;;;;;;5050896;28;20044;-70
2023/10/09 11:55:54;;;;;;;16.00;6.82;;;17.00;99.90;;;;;;5053154;28;20048;-70
2023/10/09 11:58:24;;;;;;;13.52;5.00;;;16.80;99.90;;;;;;5071071;28;20049;-70
2023/10/09 12:00:57;;;;;;;13.27;5.45;;;17.00;99.90;;;;;;5070843;28;20402;-71
2023/10/09 12:03:29;;;;;;;12.73;6.57;;;17.00;99.90;;;;;;5052531;28;20048;-70
2023/10/09 12:06:05;;;;;;;11.60;4.97;;;16.90;99.90;;;;;;5053127;28;20051;-71
2023/10/09 12:08:32;;;;;;;11.38;4.78;;;17.00;99.90;;;;;;5068618;28;20078;-71
2023/10/09 12:10:58;;;;;;;14.70;4.70;;;16.90;99.90;;;;;;5071175;28;20049;-70
2023/10/09 12:13:24;;;;;;;13.27;4.75;;;16.80;99.90;;;;;;5052737;28;20057;-70
2023/10/09 12:15:52;;;;;;;12.23;4.68;;;16.80;99.90;;;;;;5070401;28;20036;-70
2023/10/09 12:18:18;;;;;;;14.43;4.90;;;16.80;99.90;;;;;;5071528;28;20037;-70
2023/10/09 12:21:01;;;;;;;12.50;5.00;;;16.70;99.90;;;;;;5071255;28;20075;-71
2023/10/09 12:23:27;;;;;;;12.52;4.32;;;16.80;99.90;;;;;;5071377;28;20040;-70
2023/10/09 12:25:56;;;;;;;12.60;4.68;;;16.80;99.90;;;;;;5070746;28;20050;-71
2023/10/09 12:28:22;;;;;;;12.63;5.07;;;16.80;99.90;;;;;;5071051;28;20048;-72
2023/10/09 12:30:52;;;;;;;13.27;5.40;;;16.90;99.90;;;;;;5071078;28;20044;-71
2023/10/09 12:33:19;;;;;;;13.88;5.10;;;16.90;99.90;;;;;;5071513;28;20543;-74
2023/10/09 12:35:47;;;;;;;10.18;5.03;;;16.80;99.90;;;;;;5070959;28;20068;-74
2023/10/09 12:38:18;;;;;;;11.93;4.45;;;16.80;99.90;;;;;;5069954;28;20052;-74
2023/10/09 12:40:50;;;;;;;13.27;4.88;;;16.90;99.90;;;;;;5070998;28;20047;-73
2023/10/09 12:43:19;;;;;;;14.18;4.53;;;16.80;99.90;;;;;;5071363;28;20049;-73
2023/10/09 12:45:46;;;;;;;10.48;4.53;;;16.70;99.90;;;;;;5071054;28;20051;-73
2023/10/09 12:48:14;;;;;;;10.57;4.70;;;16.90;99.90;;;;;;5053128;28;20109;-73
2023/10/09 12:50:44;;;;;;;7.90;4.18;;;16.90;99.90;;;;;;5053019;28;20094;-73
2023/10/09 12:53:11;;;;;;;11.40;4.22;;;17.00;99.90;;;;;;5071743;28;20029;-73
2023/10/09 12:55:43;;;;;;;13.30;5.18;;;17.00;99.90;;;;;;5052800;28;20036;-73
2023/10/09 12:58:15;;;;;;;10.30;4.10;;;16.80;99.90;;;;;;5071143;28;20532;-73
2023/10/09 13:00:48;;;;;;;14.63;5.07;;;16.90;99.90;;;;;;5052832;28;20618;-73
2023/10/09 13:03:17;;;;;;;11.40;4.78;;;16.90;99.90;;;;;;5071007;28;20508;-73
2023/10/09 13:05:56;;;;;;;14.32;5.57;;;16.80;99.90;;;;;;5070804;28;20051;-73
2023/10/09 13:08:36;;;;;;;14.55;4.50;;;16.90;99.90;;;;;;5053094;28;20101;-73
2023/10/09 13:11:10;;;;;;;15.05;5.22;;;16.90;99.90;;;;;;5071011;28;20043;-73
2023/10/09 13:13:40;;;;;;;12.50;5.45;;;16.80;99.90;;;;;;5071061;28;20063;-73
2023/10/09 13:16:22;;;;;;;15.52;5.20;;;16.90;99.90;;;;;;5070768;28;20047;-73
2023/10/09 13:18:51;;;;;;;11.68;4.20;;;16.70;99.90;;;;;;5071095;28;20497;-73
2023/10/09 13:21:25;;;;;;;16.17;4.72;;;16.80;99.90;;;;;;5070689;28;20083;-73
2023/10/09 13:23:51;;;;;;;10.77;4.75;;;16.70;99.90;;;;;;5072297;28;20040;-73
2023/10/09 13:26:18;;;;;;;14.77;4.68;;;16.90;99.90;;;;;;5074407;28;20094;-73
2023/10/09 13:28:51;;;;;;;11.20;5.32;;;16.80;99.90;;;;;;5074639;28;20097;-73
2023/10/09 13:31:17;;;;;;;11.48;4.53;;;16.70;99.90;;;;;;5073980;28;20041;-73
2023/10/09 13:33:44;;;;;;;9.57;4.18;;;16.80;99.90;;;;;;5074246;28;20115;-73
2023/10/09 13:36:19;;;;;;;17.30;3.92;;;16.70;99.90;;;;;;5074284;28;20090;-73
2023/10/09 13:38:47;;;;;;;14.95;4.80;;;16.90;99.90;;;;;;5074214;28;20041;-73
2023/10/09 13:41:17;;;;;;;11.85;3.85;;;16.70;99.90;;;;;;5074248;28;20068;-73
2023/10/09 13:43:43;;;;;;;12.30;4.10;;;16.70;99.90;;;;;;5074199;28;20043;-73
2023/10/09 13:46:12;;;;;;;9.85;4.00;;;16.80;99.90;;;;;;5074154;28;20040;-73
2023/10/09 13:48:43;;;;;;;10.57;3.10;;;16.90;99.90;;;;;;5074022;28;20048;-73
2023/10/09 13:51:13;;;;;;;9.88;3.65;;;16.80;99.90;;;;;;5073740;28;20478;-73
2023/10/09 13:53:45;;;;;;;14.80;4.57;;;16.90;99.90;;;;;;5074175;28;20044;-73
2023/10/09 13:56:21;;;;;;;12.98;3.58;;;16.90;99.90;;;;;;5073963;28;20033;-73
2023/10/09 13:58:50;;;;;;;9.13;3.72;;;16.70;99.90;;;;;;5073764;28;20093;-73
2023/10/09 14:01:32;;;;;;;8.70;3.13;;;16.70;99.90;;;;;;5072334;28;20173;-73
2023/10/09 14:03:59;;;;;;;12.38;3.35;;;16.80;99.90;;;;;;5073352;28;20037;-73
2023/10/09 14:06:32;;;;;;;13.43;3.85;;;16.80;99.90;;;;;;5073804;28;20036;-73
2023/10/09 14:09:05;;;;;;;10.60;3.67;;;16.70;99.90;;;;;;5073484;28;20107;-73
2023/10/09 14:11:31;;;;;;;6.87;3.03;;;16.60;99.90;;;;;;5073141;28;20522;-73
2023/10/09 14:13:59;;;;;;;13.43;4.10;;;16.70;99.90;;;;;;5059875;28;20393;-73
2023/10/09 14:16:32;;;;;;;9.43;4.22;;;16.70;99.90;;;;;;5121951;22;20418;-73
2023/10/09 14:18:59;;;;;;;8.98;4.18;;;16.90;99.90;;;;;;5121710;27;20032;-72
2023/10/09 14:21:26;;;;;;;6.93;3.47;;;17.00;99.90;;;;;;5105651;27;20038;-73
2023/10/09 14:23:57;;;;;;;8.07;3.75;;;17.10;99.90;;;;;;5090169;27;20104;-73
2023/10/09 14:26:34;;;;;;;13.60;4.82;;;17.20;99.90;;;;;;5096565;28;20499;-73
2023/10/09 14:28:59;;;;;;;10.07;3.78;;;17.20;99.90;;;;;;5094042;28;20502;-73
2023/10/09 14:31:26;;;;;;;12.95;3.70;;;17.20;99.90;;;;;;5094636;28;20038;-73
2023/10/09 14:33:58;;;;;;;9.52;3.80;;;17.10;99.90;;;;;;5107778;28;20042;-73
2023/10/09 14:36:33;;;;;;;12.63;3.85;;;17.10;99.90;;;;;;5094325;28;20036;-75
2023/10/09 14:38:59;;;;;;;15.43;4.50;;;17.00;99.90;;;;;;5078415;28;20036;-72
2023/10/09 14:41:26;;;;;;;11.30;2.75;;;17.10;99.90;;;;;;5078495;28;20043;-72
2023/10/09 14:43:52;;;;;;;8.77;2.63;;;17.10;99.90;;;;;;5095148;28;20502;-72
2023/10/09 14:46:29;;;;;;;13.35;2.92;;;17.00;99.90;;;;;;5095142;28;20043;-72
2023/10/09 14:48:55;;;;;;;7.22;2.85;;;17.00;99.90;;;;;;5078353;28;20031;-72
2023/10/09 14:51:27;;;;;;;7.97;2.75;;;16.90;99.90;;;;;;5094488;28;20494;-72
2023/10/09 14:53:57;;;;;;;6.70;2.93;;;16.90;99.90;;;;;;5112800;28;20490;-73
2023/10/09 14:56:28;;;;;;;7.30;2.67;;;16.90;99.90;;;;;;5091493;28;20071;-74
2023/10/09 14:58:58;;;;;;;8.88;2.55;;;16.90;99.90;;;;;;5072668;28;20043;-72
2023/10/09 15:01:28;;;;;;;7.88;2.38;;;16.80;99.90;;;;;;5094578;28;20419;-72
2023/10/09 15:03:59;;;;;;;14.55;3.78;;;16.90;99.90;;;;;;5113107;28;20172;-72
2023/10/09 15:06:27;;;;;;;7.40;2.75;;;16.90;99.90;;;;;;5113056;28;20036;-72
2023/10/09 15:08:52;;;;;;;8.60;2.58;;;16.90;99.90;;;;;;5112890;28;20035;-73
2023/10/09 15:11:23;;;;;;;11.50;2.78;;;16.90;99.90;;;;;;5077570;28;20046;-73
2023/10/09 15:13:48;;;;;;;10.20;3.00;;;16.90;99.90;;;;;;5113004;28;20490;-72
2023/10/09 15:16:14;;;;;;;4.80;2.75;;;16.90;99.90;;;;;;5094168;28;20153;-75
2023/10/09 15:18:39;;;;;;;6.43;2.75;;;16.90;99.90;;;;;;5112982;28;20502;-74
2023/10/09 15:21:06;;;;;;;11.48;2.92;;;16.80;99.90;;;;;;5112642;28;20032;-74
2023/10/09 15:23:31;;;;;;;6.65;2.70;;;16.80;99.90;;;;;;5094502;28;20035;-75